sensor_id;sensor_type;location;lat;lon;timestamp;P1;durP1;ratioP1;P2;durP2;ratioP2
66893;SDS011;53801;55.786;49.142;2022-07-11T00:00:10;11.40;;;8.07;;
66893;SDS011;53801;55.786;49.142;2022-07-11T00:02:36;11.93;;;8.20;;
66893;SDS011;53801;55.786;49.142;2022-07-11T00:05:02;14.57;;;8.57;;
66893;SDS011;53801;55.786;49.142;2022-07-11T00:07:28;12.23;;;7.63;;
66893;SDS011;53801;55.786;49.142;2022-07-11T00:09:54;10.63;;;7.90;;
66893;SDS011;53801;55.786;49.142;2022-07-11T00:12:19;12.57;;;7.63;;
66893;SDS011;53801;55.786;49.142;2022-07-11T00:14:47;13.73;;;8.18;;
66893;SDS011;53801;55.786;49.142;2022-07-11T00:17:12;11.30;;;7.95;;
66893;SDS011;53801;55.786;49.142;2022-07-11T00:19:38;10.75;;;7.88;;
66893;SDS011;53801;55.786;49.142;2022-07-11T00:22:04;14.83;;;8.37;;
66893;SDS011;53801;55.786;49.142;2022-07-11T00:24:29;11.63;;;8.05;;
66893;SDS011;53801;55.786;49.142;2022-07-11T00:26:55;11.17;;;8.60;;
66893;SDS011;53801;55.786;49.142;2022-07-11T00:29:20;12.03;;;8.93;;
66893;SDS011;53801;55.786;49.142;2022-07-11T00:31:46;12.60;;;8.95;;
66893;SDS011;53801;55.786;49.142;2022-07-11T00:34:11;12.48;;;8.52;;
66893;SDS011;53801;55.786;49.142;2022-07-11T00:36:37;11.63;;;8.37;;
66893;SDS011;53801;55.786;49.142;2022-07-11T00:39:02;12.87;;;8.33;;
66893;SDS011;53801;55.786;49.142;2022-07-11T00:41:28;14.27;;;8.48;;
66893;SDS011;53801;55.786;49.142;2022-07-11T00:43:57;11.97;;;8.17;;
66893;SDS011;53801;55.786;49.142;2022-07-11T00:46:23;12.43;;;8.52;;
66893;SDS011;53801;55.786;49.142;2022-07-11T00:48:49;12.13;;;8.02;;
66893;SDS011;53801;55.786;49.142;2022-07-11T00:51:14;13.10;;;7.57;;
66893;SDS011;53801;55.786;49.142;2022-07-11T00:53:41;10.15;;;7.53;;
66893;SDS011;53801;55.786;49.142;2022-07-11T00:56:07;13.55;;;7.45;;
66893;SDS011;53801;55.786;49.142;2022-07-11T00:58:33;12.88;;;7.80;;
66893;SDS011;53801;55.786;49.142;2022-07-11T01:00:59;10.20;;;7.63;;
66893;SDS011;53801;55.786;49.142;2022-07-11T01:03:25;10.80;;;6.95;;
66893;SDS011;53801;55.786;49.142;2022-07-11T01:05:50;11.63;;;7.10;;
66893;SDS011;53801;55.786;49.142;2022-07-11T01:08:15;12.37;;;7.17;;
66893;SDS011;53801;55.786;49.142;2022-07-11T01:10:41;10.57;;;7.60;;
66893;SDS011;53801;55.786;49.142;2022-07-11T01:13:06;9.68;;;7.05;;
66893;SDS011;53801;55.786;49.142;2022-07-11T01:15:35;10.10;;;7.23;;
66893;SDS011;53801;55.786;49.142;2022-07-11T01:18:01;12.65;;;7.72;;
66893;SDS011;53801;55.786;49.142;2022-07-11T01:20:27;9.30;;;7.38;;
66893;SDS011;53801;55.786;49.142;2022-07-11T01:22:53;9.93;;;7.40;;
66893;SDS011;53801;55.786;49.142;2022-07-11T01:25:19;10.00;;;7.25;;
66893;SDS011;53801;55.786;49.142;2022-07-11T01:28:00;9.50;;;6.93;;
66893;SDS011;53801;55.786;49.142;2022-07-11T01:30:26;8.32;;;7.03;;
66893;SDS011;53801;55.786;49.142;2022-07-11T01:32:52;9.80;;;6.93;;
66893;SDS011;53801;55.786;49.142;2022-07-11T01:35:18;12.00;;;6.85;;
66893;SDS011;53801;55.786;49.142;2022-07-11T01:37:44;10.45;;;6.80;;
66893;SDS011;53801;55.786;49.142;2022-07-11T01:40:09;10.63;;;6.55;;
66893;SDS011;53801;55.786;49.142;2022-07-11T01:42:36;8.27;;;6.70;;
66893;SDS011;53801;55.786;49.142;2022-07-11T01:45:02;8.47;;;6.87;;
66893;SDS011;53801;55.786;49.142;2022-07-11T01:47:28;9.73;;;6.97;;
66893;SDS011;53801;55.786;49.142;2022-07-11T01:49:54;10.93;;;7.20;;
66893;SDS011;53801;55.786;49.142;2022-07-11T01:52:20;9.25;;;7.20;;
66893;SDS011;53801;55.786;49.142;2022-07-11T01:54:46;9.27;;;7.03;;
66893;SDS011;53801;55.786;49.142;2022-07-11T01:57:11;11.00;;;6.80;;
66893;SDS011;53801;55.786;49.142;2022-07-11T01:59:36;9.70;;;6.70;;
66893;SDS011;53801;55.786;49.142;2022-07-11T02:02:02;10.00;;;7.30;;
66893;SDS011;53801;55.786;49.142;2022-07-11T02:04:28;9.83;;;7.27;;
66893;SDS011;53801;55.786;49.142;2022-07-11T02:06:53;9.23;;;7.18;;
66893;SDS011;53801;55.786;49.142;2022-07-11T02:09:18;8.90;;;7.17;;
66893;SDS011;53801;55.786;49.142;2022-07-11T02:11:44;10.83;;;7.70;;
66893;SDS011;53801;55.786;49.142;2022-07-11T02:14:09;9.50;;;7.27;;
66893;SDS011;53801;55.786;49.142;2022-07-11T02:16:35;10.73;;;7.72;;
66893;SDS011;53801;55.786;49.142;2022-07-11T02:19:00;13.13;;;7.67;;
66893;SDS011;53801;55.786;49.142;2022-07-11T02:21:26;12.17;;;7.50;;
66893;SDS011;53801;55.786;49.142;2022-07-11T02:23:51;11.43;;;7.93;;
66893;SDS011;53801;55.786;49.142;2022-07-11T02:26:17;9.95;;;7.72;;
66893;SDS011;53801;55.786;49.142;2022-07-11T02:28:42;11.33;;;7.83;;
66893;SDS011;53801;55.786;49.142;2022-07-11T02:31:07;10.63;;;8.10;;
66893;SDS011;53801;55.786;49.142;2022-07-11T02:33:33;12.23;;;8.00;;
66893;SDS011;53801;55.786;49.142;2022-07-11T02:35:58;11.30;;;7.45;;
66893;SDS011;53801;55.786;49.142;2022-07-11T02:38:24;10.43;;;8.13;;
66893;SDS011;53801;55.786;49.142;2022-07-11T02:40:50;12.55;;;8.13;;
66893;SDS011;53801;55.786;49.142;2022-07-11T02:43:15;11.83;;;8.73;;
66893;SDS011;53801;55.786;49.142;2022-07-11T02:45:41;17.10;;;9.30;;
66893;SDS011;53801;55.786;49.142;2022-07-11T02:48:06;11.53;;;8.40;;
66893;SDS011;53801;55.786;49.142;2022-07-11T02:50:32;17.00;;;9.27;;
66893;SDS011;53801;55.786;49.142;2022-07-11T02:52:57;10.52;;;7.90;;
66893;SDS011;53801;55.786;49.142;2022-07-11T02:55:22;15.27;;;7.97;;
66893;SDS011;53801;55.786;49.142;2022-07-11T02:57:48;12.40;;;8.53;;
66893;SDS011;53801;55.786;49.142;2022-07-11T03:00:14;11.07;;;8.60;;
66893;SDS011;53801;55.786;49.142;2022-07-11T03:02:41;12.88;;;8.48;;
66893;SDS011;53801;55.786;49.142;2022-07-11T03:05:06;14.77;;;8.63;;
66893;SDS011;53801;55.786;49.142;2022-07-11T03:07:32;17.85;;;9.30;;
66893;SDS011;53801;55.786;49.142;2022-07-11T03:09:58;14.93;;;8.17;;
66893;SDS011;53801;55.786;49.142;2022-07-11T03:12:23;13.70;;;7.97;;
66893;SDS011;53801;55.786;49.142;2022-07-11T03:14:49;12.37;;;8.60;;
66893;SDS011;53801;55.786;49.142;2022-07-11T03:17:17;11.85;;;8.07;;
66893;SDS011;53801;55.786;49.142;2022-07-11T03:19:43;8.80;;;7.82;;
66893;SDS011;53801;55.786;49.142;2022-07-11T03:22:08;10.27;;;7.27;;
66893;SDS011;53801;55.786;49.142;2022-07-11T03:24:34;10.88;;;8.07;;
66893;SDS011;53801;55.786;49.142;2022-07-11T03:26:59;9.63;;;7.90;;
66893;SDS011;53801;55.786;49.142;2022-07-11T03:29:25;11.83;;;8.17;;
66893;SDS011;53801;55.786;49.142;2022-07-11T03:31:50;10.13;;;8.37;;
66893;SDS011;53801;55.786;49.142;2022-07-11T03:34:16;12.67;;;8.07;;
66893;SDS011;53801;55.786;49.142;2022-07-11T03:36:41;15.95;;;8.35;;
66893;SDS011;53801;55.786;49.142;2022-07-11T03:39:07;10.83;;;7.87;;
66893;SDS011;53801;55.786;49.142;2022-07-11T03:41:32;11.87;;;9.03;;
66893;SDS011;53801;55.786;49.142;2022-07-11T03:43:58;9.65;;;8.05;;
66893;SDS011;53801;55.786;49.142;2022-07-11T03:46:23;13.15;;;7.97;;
66893;SDS011;53801;55.786;49.142;2022-07-11T03:48:49;14.43;;;7.97;;
66893;SDS011;53801;55.786;49.142;2022-07-11T03:51:15;18.20;;;8.40;;
66893;SDS011;53801;55.786;49.142;2022-07-11T03:53:41;12.13;;;8.00;;
66893;SDS011;53801;55.786;49.142;2022-07-11T03:56:07;14.70;;;7.50;;
66893;SDS011;53801;55.786;49.142;2022-07-11T03:58:32;11.82;;;7.65;;
66893;SDS011;53801;55.786;49.142;2022-07-11T04:00:58;19.23;;;8.83;;
66893;SDS011;53801;55.786;49.142;2022-07-11T04:03:23;12.93;;;7.57;;
66893;SDS011;53801;55.786;49.142;2022-07-11T04:05:49;15.40;;;8.05;;
66893;SDS011;53801;55.786;49.142;2022-07-11T04:08:15;13.17;;;8.07;;
66893;SDS011;53801;55.786;49.142;2022-07-11T04:10:40;12.18;;;7.95;;
66893;SDS011;53801;55.786;49.142;2022-07-11T04:13:06;17.97;;;8.03;;
66893;SDS011;53801;55.786;49.142;2022-07-11T04:15:31;13.93;;;8.13;;
66893;SDS011;53801;55.786;49.142;2022-07-11T04:17:57;14.30;;;7.47;;
66893;SDS011;53801;55.786;49.142;2022-07-11T04:20:22;12.25;;;8.05;;
66893;SDS011;53801;55.786;49.142;2022-07-11T04:22:47;8.73;;;7.55;;
66893;SDS011;53801;55.786;49.142;2022-07-11T04:25:18;12.27;;;7.85;;
66893;SDS011;53801;55.786;49.142;2022-07-11T04:27:43;11.77;;;7.83;;
66893;SDS011;53801;55.786;49.142;2022-07-11T04:30:09;14.73;;;7.90;;
66893;SDS011;53801;55.786;49.142;2022-07-11T04:32:34;12.17;;;7.83;;
66893;SDS011;53801;55.786;49.142;2022-07-11T04:35:01;10.45;;;7.70;;
66893;SDS011;53801;55.786;49.142;2022-07-11T04:37:29;11.52;;;7.93;;
66893;SDS011;53801;55.786;49.142;2022-07-11T04:39:54;11.23;;;7.63;;
66893;SDS011;53801;55.786;49.142;2022-07-11T04:42:20;11.13;;;7.13;;
66893;SDS011;53801;55.786;49.142;2022-07-11T04:44:45;9.07;;;7.20;;
66893;SDS011;53801;55.786;49.142;2022-07-11T04:47:11;9.77;;;6.95;;
66893;SDS011;53801;55.786;49.142;2022-07-11T04:49:36;12.93;;;7.20;;
66893;SDS011;53801;55.786;49.142;2022-07-11T04:52:03;14.52;;;7.78;;
66893;SDS011;53801;55.786;49.142;2022-07-11T04:54:28;14.03;;;7.53;;
66893;SDS011;53801;55.786;49.142;2022-07-11T04:56:54;17.63;;;8.00;;
66893;SDS011;53801;55.786;49.142;2022-07-11T04:59:19;15.43;;;7.13;;
66893;SDS011;53801;55.786;49.142;2022-07-11T05:01:45;13.13;;;8.23;;
66893;SDS011;53801;55.786;49.142;2022-07-11T05:04:10;14.07;;;7.80;;
66893;SDS011;53801;55.786;49.142;2022-07-11T05:06:35;21.33;;;8.60;;
66893;SDS011;53801;55.786;49.142;2022-07-11T05:09:01;15.35;;;8.15;;
66893;SDS011;53801;55.786;49.142;2022-07-11T05:11:27;14.37;;;7.83;;
66893;SDS011;53801;55.786;49.142;2022-07-11T05:13:53;15.73;;;8.20;;
66893;SDS011;53801;55.786;49.142;2022-07-11T05:16:18;20.13;;;8.27;;
66893;SDS011;53801;55.786;49.142;2022-07-11T05:18:43;14.20;;;7.40;;
66893;SDS011;53801;55.786;49.142;2022-07-11T05:21:09;12.57;;;7.70;;
66893;SDS011;53801;55.786;49.142;2022-07-11T05:23:34;13.80;;;7.47;;
66893;SDS011;53801;55.786;49.142;2022-07-11T05:26:00;11.50;;;7.65;;
66893;SDS011;53801;55.786;49.142;2022-07-11T05:28:25;10.90;;;8.10;;
66893;SDS011;53801;55.786;49.142;2022-07-11T05:30:50;17.27;;;7.47;;
66893;SDS011;53801;55.786;49.142;2022-07-11T05:33:16;20.33;;;8.00;;
66893;SDS011;53801;55.786;49.142;2022-07-11T05:35:41;17.77;;;7.60;;
66893;SDS011;53801;55.786;49.142;2022-07-11T05:38:07;14.50;;;7.50;;
66893;SDS011;53801;55.786;49.142;2022-07-11T05:40:33;16.48;;;7.43;;
66893;SDS011;53801;55.786;49.142;2022-07-11T05:42:58;13.73;;;7.43;;
66893;SDS011;53801;55.786;49.142;2022-07-11T05:45:26;14.63;;;7.80;;
66893;SDS011;53801;55.786;49.142;2022-07-11T05:47:51;21.30;;;7.83;;
66893;SDS011;53801;55.786;49.142;2022-07-11T05:50:17;14.57;;;7.10;;
66893;SDS011;53801;55.786;49.142;2022-07-11T05:52:42;14.87;;;8.03;;
66893;SDS011;53801;55.786;49.142;2022-07-11T05:55:07;22.75;;;7.80;;
66893;SDS011;53801;55.786;49.142;2022-07-11T05:57:33;13.00;;;7.30;;
66893;SDS011;53801;55.786;49.142;2022-07-11T05:59:58;13.13;;;6.97;;
66893;SDS011;53801;55.786;49.142;2022-07-11T06:02:24;12.77;;;7.97;;
66893;SDS011;53801;55.786;49.142;2022-07-11T06:04:49;16.92;;;10.57;;
66893;SDS011;53801;55.786;49.142;2022-07-11T06:07:15;18.07;;;10.37;;
66893;SDS011;53801;55.786;49.142;2022-07-11T06:10:00;17.63;;;10.27;;
66893;SDS011;53801;55.786;49.142;2022-07-11T06:12:26;18.77;;;11.33;;
66893;SDS011;53801;55.786;49.142;2022-07-11T06:14:51;21.23;;;11.10;;
66893;SDS011;53801;55.786;49.142;2022-07-11T06:17:17;22.45;;;11.27;;
66893;SDS011;53801;55.786;49.142;2022-07-11T06:19:42;21.03;;;11.60;;
66893;SDS011;53801;55.786;49.142;2022-07-11T06:22:07;36.80;;;14.40;;
66893;SDS011;53801;55.786;49.142;2022-07-11T06:24:33;30.93;;;12.83;;
66893;SDS011;53801;55.786;49.142;2022-07-11T06:26:58;20.90;;;12.23;;
66893;SDS011;53801;55.786;49.142;2022-07-11T06:29:25;22.02;;;13.45;;
66893;SDS011;53801;55.786;49.142;2022-07-11T06:31:51;23.42;;;12.55;;
66893;SDS011;53801;55.786;49.142;2022-07-11T06:34:17;19.93;;;11.70;;
66893;SDS011;53801;55.786;49.142;2022-07-11T06:36:43;22.23;;;12.75;;
66893;SDS011;53801;55.786;49.142;2022-07-11T06:39:08;17.63;;;13.63;;
66893;SDS011;53801;55.786;49.142;2022-07-11T06:41:34;18.53;;;13.13;;
66893;SDS011;53801;55.786;49.142;2022-07-11T06:43:59;17.33;;;13.47;;
66893;SDS011;53801;55.786;49.142;2022-07-11T06:46:24;14.35;;;10.82;;
66893;SDS011;53801;55.786;49.142;2022-07-11T06:48:52;18.95;;;12.00;;
66893;SDS011;53801;55.786;49.142;2022-07-11T06:51:17;13.50;;;10.07;;
66893;SDS011;53801;55.786;49.142;2022-07-11T06:53:43;15.23;;;11.07;;
66893;SDS011;53801;55.786;49.142;2022-07-11T06:56:08;15.95;;;10.05;;
66893;SDS011;53801;55.786;49.142;2022-07-11T06:58:34;16.30;;;10.93;;
66893;SDS011;53801;55.786;49.142;2022-07-11T07:01:00;16.10;;;10.17;;
66893;SDS011;53801;55.786;49.142;2022-07-11T07:03:26;15.70;;;12.07;;
66893;SDS011;53801;55.786;49.142;2022-07-11T07:05:51;16.48;;;11.23;;
66893;SDS011;53801;55.786;49.142;2022-07-11T07:08:20;16.53;;;13.67;;
66893;SDS011;53801;55.786;49.142;2022-07-11T07:10:46;16.27;;;11.30;;
66893;SDS011;53801;55.786;49.142;2022-07-11T07:13:11;15.83;;;12.83;;
66893;SDS011;53801;55.786;49.142;2022-07-11T07:15:36;16.50;;;14.83;;
66893;SDS011;53801;55.786;49.142;2022-07-11T07:18:02;15.25;;;11.65;;
66893;SDS011;53801;55.786;49.142;2022-07-11T07:20:27;17.80;;;11.87;;
66893;SDS011;53801;55.786;49.142;2022-07-11T07:22:53;19.97;;;14.43;;
66893;SDS011;53801;55.786;49.142;2022-07-11T07:25:18;16.43;;;13.20;;
66893;SDS011;53801;55.786;49.142;2022-07-11T07:27:43;14.60;;;12.10;;
66893;SDS011;53801;55.786;49.142;2022-07-11T07:30:09;15.80;;;13.33;;
66893;SDS011;53801;55.786;49.142;2022-07-11T07:32:35;16.65;;;14.88;;
66893;SDS011;53801;55.786;49.142;2022-07-11T07:35:00;18.00;;;16.23;;
66893;SDS011;53801;55.786;49.142;2022-07-11T07:37:26;15.98;;;14.00;;
66893;SDS011;53801;55.786;49.142;2022-07-11T07:39:51;17.40;;;15.77;;
66893;SDS011;53801;55.786;49.142;2022-07-11T07:42:17;17.30;;;15.57;;
66893;SDS011;53801;55.786;49.142;2022-07-11T07:44:42;17.88;;;14.25;;
66893;SDS011;53801;55.786;49.142;2022-07-11T07:47:08;16.20;;;14.67;;
66893;SDS011;53801;55.786;49.142;2022-07-11T07:49:33;15.80;;;14.17;;
66893;SDS011;53801;55.786;49.142;2022-07-11T07:51:59;18.30;;;16.43;;
66893;SDS011;53801;55.786;49.142;2022-07-11T07:54:24;17.33;;;15.67;;
66893;SDS011;53801;55.786;49.142;2022-07-11T07:56:49;17.15;;;15.05;;
66893;SDS011;53801;55.786;49.142;2022-07-11T07:59:15;18.07;;;16.27;;
66893;SDS011;53801;55.786;49.142;2022-07-11T08:01:40;27.27;;;18.07;;
66893;SDS011;53801;55.786;49.142;2022-07-11T08:04:10;19.33;;;17.35;;
66893;SDS011;53801;55.786;49.142;2022-07-11T08:06:36;21.10;;;19.02;;
66893;SDS011;53801;55.786;49.142;2022-07-11T08:09:02;19.37;;;16.37;;
66893;SDS011;53801;55.786;49.142;2022-07-11T08:11:28;21.52;;;19.40;;
66893;SDS011;53801;55.786;49.142;2022-07-11T08:13:53;17.97;;;16.33;;
66893;SDS011;53801;55.786;49.142;2022-07-11T08:16:19;20.73;;;18.80;;
66893;SDS011;53801;55.786;49.142;2022-07-11T08:18:45;19.23;;;17.65;;
66893;SDS011;53801;55.786;49.142;2022-07-11T08:21:10;20.60;;;18.67;;
66893;SDS011;53801;55.786;49.142;2022-07-11T08:23:36;21.10;;;19.17;;
66893;SDS011;53801;55.786;49.142;2022-07-11T08:26:02;21.45;;;19.63;;
66893;SDS011;53801;55.786;49.142;2022-07-11T08:28:27;21.00;;;19.20;;
66893;SDS011;53801;55.786;49.142;2022-07-11T08:30:52;19.67;;;17.83;;
66893;SDS011;53801;55.786;49.142;2022-07-11T08:33:18;19.50;;;17.83;;
66893;SDS011;53801;55.786;49.142;2022-07-11T08:35:43;20.60;;;18.80;;
66893;SDS011;53801;55.786;49.142;2022-07-11T08:38:09;19.00;;;17.23;;
66893;SDS011;53801;55.786;49.142;2022-07-11T08:40:34;18.53;;;17.13;;
66893;SDS011;53801;55.786;49.142;2022-07-11T08:42:59;19.50;;;17.67;;
66893;SDS011;53801;55.786;49.142;2022-07-11T08:45:31;18.20;;;16.70;;
66893;SDS011;53801;55.786;49.142;2022-07-11T08:47:57;18.02;;;16.23;;
66893;SDS011;53801;55.786;49.142;2022-07-11T08:50:23;20.80;;;19.20;;
66893;SDS011;53801;55.786;49.142;2022-07-11T08:52:50;20.15;;;18.35;;
66893;SDS011;53801;55.786;49.142;2022-07-11T08:55:16;20.05;;;18.27;;
66893;SDS011;53801;55.786;49.142;2022-07-11T08:57:48;19.27;;;17.67;;
66893;SDS011;53801;55.786;49.142;2022-07-11T09:00:14;20.67;;;18.88;;
66893;SDS011;53801;55.786;49.142;2022-07-11T09:02:40;19.98;;;18.20;;
66893;SDS011;53801;55.786;49.142;2022-07-11T09:05:06;17.52;;;16.00;;
66893;SDS011;53801;55.786;49.142;2022-07-11T09:07:33;18.42;;;16.83;;
66893;SDS011;53801;55.786;49.142;2022-07-11T09:09:59;18.88;;;17.10;;
66893;SDS011;53801;55.786;49.142;2022-07-11T09:12:24;20.02;;;18.48;;
66893;SDS011;53801;55.786;49.142;2022-07-11T09:14:50;20.67;;;18.87;;
66893;SDS011;53801;55.786;49.142;2022-07-11T09:17:26;19.58;;;17.88;;
66893;SDS011;53801;55.786;49.142;2022-07-11T09:19:52;18.58;;;16.98;;
66893;SDS011;53801;55.786;49.142;2022-07-11T09:22:17;20.38;;;18.55;;
66893;SDS011;53801;55.786;49.142;2022-07-11T09:28:03;16.77;;;15.38;;
66893;SDS011;53801;55.786;49.142;2022-07-11T09:30:37;17.80;;;16.05;;
66893;SDS011;53801;55.786;49.142;2022-07-11T09:33:08;17.70;;;15.83;;
66893;SDS011;53801;55.786;49.142;2022-07-11T09:35:41;17.15;;;15.60;;
66893;SDS011;53801;55.786;49.142;2022-07-11T09:38:08;18.08;;;16.58;;
66893;SDS011;53801;55.786;49.142;2022-07-11T09:40:35;17.20;;;14.98;;
66893;SDS011;53801;55.786;49.142;2022-07-11T09:43:01;15.75;;;14.45;;
66893;SDS011;53801;55.786;49.142;2022-07-11T09:45:29;18.83;;;17.20;;
66893;SDS011;53801;55.786;49.142;2022-07-11T09:47:56;20.52;;;18.83;;
66893;SDS011;53801;55.786;49.142;2022-07-11T09:50:22;20.42;;;18.60;;
66893;SDS011;53801;55.786;49.142;2022-07-11T09:52:58;17.35;;;15.75;;
66893;SDS011;53801;55.786;49.142;2022-07-11T09:55:24;20.95;;;18.63;;
66893;SDS011;53801;55.786;49.142;2022-07-11T09:57:50;18.30;;;16.57;;
66893;SDS011;53801;55.786;49.142;2022-07-11T10:00:15;18.13;;;16.42;;
66893;SDS011;53801;55.786;49.142;2022-07-11T10:02:41;18.53;;;16.63;;
66893;SDS011;53801;55.786;49.142;2022-07-11T10:05:07;18.77;;;17.27;;
66893;SDS011;53801;55.786;49.142;2022-07-11T10:07:32;17.40;;;15.93;;
66893;SDS011;53801;55.786;49.142;2022-07-11T10:09:58;16.33;;;14.82;;
66893;SDS011;53801;55.786;49.142;2022-07-11T10:12:24;19.25;;;17.75;;
66893;SDS011;53801;55.786;49.142;2022-07-11T10:14:53;16.65;;;15.15;;
66893;SDS011;53801;55.786;49.142;2022-07-11T10:17:32;20.80;;;19.08;;
66893;SDS011;53801;55.786;49.142;2022-07-11T10:20:07;19.85;;;18.15;;
66893;SDS011;53801;55.786;49.142;2022-07-11T10:22:40;20.48;;;18.58;;
66893;SDS011;53801;55.786;49.142;2022-07-11T10:25:18;20.02;;;18.30;;
66893;SDS011;53801;55.786;49.142;2022-07-11T10:30:11;18.17;;;16.67;;
66893;SDS011;53801;55.786;49.142;2022-07-11T10:35:21;16.70;;;15.23;;
66893;SDS011;53801;55.786;49.142;2022-07-11T10:37:48;15.67;;;14.27;;
66893;SDS011;53801;55.786;49.142;2022-07-11T10:40:13;20.17;;;13.43;;
66893;SDS011;53801;55.786;49.142;2022-07-11T10:42:39;15.23;;;13.73;;
66893;SDS011;53801;55.786;49.142;2022-07-11T10:45:08;15.65;;;14.00;;
66893;SDS011;53801;55.786;49.142;2022-07-11T10:47:39;15.45;;;13.48;;
66893;SDS011;53801;55.786;49.142;2022-07-11T10:52:51;15.00;;;13.50;;
66893;SDS011;53801;55.786;49.142;2022-07-11T10:55:34;13.70;;;12.40;;
66893;SDS011;53801;55.786;49.142;2022-07-11T10:58:46;14.98;;;13.48;;
66893;SDS011;53801;55.786;49.142;2022-07-11T11:00:48;14.57;;;13.30;;
66893;SDS011;53801;55.786;49.142;2022-07-11T11:03:15;15.05;;;13.65;;
66893;SDS011;53801;55.786;49.142;2022-07-11T11:10:51;15.48;;;13.82;;
66893;SDS011;53801;55.786;49.142;2022-07-11T11:13:16;15.83;;;14.13;;
66893;SDS011;53801;55.786;49.142;2022-07-11T11:18:32;14.85;;;13.40;;
66893;SDS011;53801;55.786;49.142;2022-07-11T11:23:29;14.90;;;13.50;;
66893;SDS011;53801;55.786;49.142;2022-07-11T11:25:54;16.05;;;13.60;;
66893;SDS011;53801;55.786;49.142;2022-07-11T11:28:20;14.45;;;13.10;;
66893;SDS011;53801;55.786;49.142;2022-07-11T11:30:56;15.40;;;13.85;;
66893;SDS011;53801;55.786;49.142;2022-07-11T11:33:25;15.85;;;13.32;;
66893;SDS011;53801;55.786;49.142;2022-07-11T11:38:25;26.25;;;15.95;;
66893;SDS011;53801;55.786;49.142;2022-07-11T11:40:50;16.00;;;14.27;;
66893;SDS011;53801;55.786;49.142;2022-07-11T11:43:19;17.13;;;15.00;;
66893;SDS011;53801;55.786;49.142;2022-07-11T11:45:54;18.27;;;14.73;;
66893;SDS011;53801;55.786;49.142;2022-07-11T11:51:08;18.48;;;14.55;;
66893;SDS011;53801;55.786;49.142;2022-07-11T11:53:50;17.35;;;14.70;;
66893;SDS011;53801;55.786;49.142;2022-07-11T11:56:20;16.73;;;14.38;;
66893;SDS011;53801;55.786;49.142;2022-07-11T11:58:54;16.98;;;15.27;;
66893;SDS011;53801;55.786;49.142;2022-07-11T12:01:21;17.38;;;14.40;;
66893;SDS011;53801;55.786;49.142;2022-07-11T12:03:51;15.73;;;14.13;;
66893;SDS011;53801;55.786;49.142;2022-07-11T12:06:20;16.92;;;15.15;;
66893;SDS011;53801;55.786;49.142;2022-07-11T12:08:45;17.20;;;15.50;;
66893;SDS011;53801;55.786;49.142;2022-07-11T12:11:11;18.55;;;15.15;;
66893;SDS011;53801;55.786;49.142;2022-07-11T12:13:37;18.20;;;14.98;;
66893;SDS011;53801;55.786;49.142;2022-07-11T12:16:03;17.45;;;15.07;;
66893;SDS011;53801;55.786;49.142;2022-07-11T12:18:55;25.05;;;15.45;;
66893;SDS011;53801;55.786;49.142;2022-07-11T12:21:21;21.10;;;15.40;;
66893;SDS011;53801;55.786;49.142;2022-07-11T12:23:46;16.33;;;14.73;;
66893;SDS011;53801;55.786;49.142;2022-07-11T12:26:11;16.27;;;14.57;;
66893;SDS011;53801;55.786;49.142;2022-07-11T12:29:01;15.25;;;13.75;;
66893;SDS011;53801;55.786;49.142;2022-07-11T12:31:22;16.63;;;14.68;;
66893;SDS011;53801;55.786;49.142;2022-07-11T12:33:51;15.80;;;14.20;;
66893;SDS011;53801;55.786;49.142;2022-07-11T12:36:17;17.33;;;15.00;;
66893;SDS011;53801;55.786;49.142;2022-07-11T12:38:51;16.43;;;14.83;;
66893;SDS011;53801;55.786;49.142;2022-07-11T12:41:17;17.77;;;15.68;;
66893;SDS011;53801;55.786;49.142;2022-07-11T12:43:44;19.33;;;16.43;;
66893;SDS011;53801;55.786;49.142;2022-07-11T12:46:28;17.13;;;15.27;;
66893;SDS011;53801;55.786;49.142;2022-07-11T12:48:54;18.98;;;16.38;;
66893;SDS011;53801;55.786;49.142;2022-07-11T12:51:54;17.75;;;15.95;;
66893;SDS011;53801;55.786;49.142;2022-07-11T12:54:13;17.80;;;16.00;;
66893;SDS011;53801;55.786;49.142;2022-07-11T12:56:39;17.20;;;15.43;;
66893;SDS011;53801;55.786;49.142;2022-07-11T12:59:05;21.67;;;16.27;;
66893;SDS011;53801;55.786;49.142;2022-07-11T13:01:31;17.23;;;15.52;;
66893;SDS011;53801;55.786;49.142;2022-07-11T13:03:57;17.83;;;16.02;;
66893;SDS011;53801;55.786;49.142;2022-07-11T13:06:22;18.23;;;15.43;;
66893;SDS011;53801;55.786;49.142;2022-07-11T13:09:07;18.10;;;15.10;;
66893;SDS011;53801;55.786;49.142;2022-07-11T13:11:33;18.13;;;15.32;;
66893;SDS011;53801;55.786;49.142;2022-07-11T13:13:59;17.30;;;15.50;;
66893;SDS011;53801;55.786;49.142;2022-07-11T13:16:24;17.75;;;16.02;;
66893;SDS011;53801;55.786;49.142;2022-07-11T13:18:50;16.63;;;14.93;;
66893;SDS011;53801;55.786;49.142;2022-07-11T13:21:16;19.07;;;14.97;;
66893;SDS011;53801;55.786;49.142;2022-07-11T13:23:41;18.98;;;15.57;;
66893;SDS011;53801;55.786;49.142;2022-07-11T13:26:07;19.53;;;16.60;;
66893;SDS011;53801;55.786;49.142;2022-07-11T13:28:33;19.02;;;15.98;;
66893;SDS011;53801;55.786;49.142;2022-07-11T13:30:58;18.47;;;16.50;;
66893;SDS011;53801;55.786;49.142;2022-07-11T13:33:24;19.33;;;17.20;;
66893;SDS011;53801;55.786;49.142;2022-07-11T13:35:49;19.50;;;17.48;;
66893;SDS011;53801;55.786;49.142;2022-07-11T13:38:16;19.67;;;17.13;;
66893;SDS011;53801;55.786;49.142;2022-07-11T13:40:42;19.90;;;17.80;;
66893;SDS011;53801;55.786;49.142;2022-07-11T13:43:08;23.93;;;18.20;;
66893;SDS011;53801;55.786;49.142;2022-07-11T13:45:34;23.13;;;17.75;;
66893;SDS011;53801;55.786;49.142;2022-07-11T13:48:00;24.33;;;18.17;;
66893;SDS011;53801;55.786;49.142;2022-07-11T13:50:26;20.90;;;17.75;;
66893;SDS011;53801;55.786;49.142;2022-07-11T13:52:53;18.65;;;16.13;;
66893;SDS011;53801;55.786;49.142;2022-07-11T13:55:20;25.30;;;18.03;;
66893;SDS011;53801;55.786;49.142;2022-07-11T13:57:48;25.15;;;17.42;;
66893;SDS011;53801;55.786;49.142;2022-07-11T14:00:15;22.80;;;18.52;;
66893;SDS011;53801;55.786;49.142;2022-07-11T14:02:41;31.03;;;21.77;;
66893;SDS011;53801;55.786;49.142;2022-07-11T14:05:07;29.25;;;20.02;;
66893;SDS011;53801;55.786;49.142;2022-07-11T14:07:32;29.00;;;20.73;;
66893;SDS011;53801;55.786;49.142;2022-07-11T14:09:58;27.38;;;21.48;;
66893;SDS011;53801;55.786;49.142;2022-07-11T14:12:23;27.30;;;22.17;;
66893;SDS011;53801;55.786;49.142;2022-07-11T14:14:49;25.10;;;20.08;;
66893;SDS011;53801;55.786;49.142;2022-07-11T14:17:18;28.25;;;19.83;;
66893;SDS011;53801;55.786;49.142;2022-07-11T14:19:43;28.65;;;21.20;;
66893;SDS011;53801;55.786;49.142;2022-07-11T14:22:08;27.27;;;20.43;;
66893;SDS011;53801;55.786;49.142;2022-07-11T14:24:34;25.20;;;19.83;;
66893;SDS011;53801;55.786;49.142;2022-07-11T14:27:02;25.38;;;21.38;;
66893;SDS011;53801;55.786;49.142;2022-07-11T14:29:28;30.25;;;20.75;;
66893;SDS011;53801;55.786;49.142;2022-07-11T14:31:53;26.97;;;21.27;;
66893;SDS011;53801;55.786;49.142;2022-07-11T14:34:20;25.70;;;20.85;;
66893;SDS011;53801;55.786;49.142;2022-07-11T14:36:46;24.17;;;20.33;;
66893;SDS011;53801;55.786;49.142;2022-07-11T14:39:13;24.13;;;19.70;;